createdAt,value
2019-02-12T00:02:18.389Z,96365.56
2019-02-12T00:04:49.893Z,96366.30
2019-02-12T00:07:21.325Z,96362.53
2019-02-12T00:09:52.733Z,96367.94
2019-02-12T00:12:24.197Z,96368.03
2019-02-12T00:14:55.652Z,96381.44
2019-02-12T00:17:27.113Z,96382.34
2019-02-12T00:19:58.515Z,96388.57
2019-02-12T00:22:29.955Z,96392.27
2019-02-12T00:25:01.284Z,96400.89
2019-02-12T00:27:33.821Z,96401.70
2019-02-12T00:30:06.156Z,96404.02
2019-02-12T00:32:40.643Z,96410.81
2019-02-12T00:35:12.043Z,96407.50
2019-02-12T00:37:43.483Z,96409.22
2019-02-12T00:40:15.042Z,96425.36
2019-02-12T00:42:46.494Z,96429.15
2019-02-12T00:45:17.911Z,96426.42
2019-02-12T00:47:49.355Z,96426.94
2019-02-12T00:50:20.678Z,96430.03
2019-02-12T00:52:52.133Z,96448.33
2019-02-12T00:55:23.547Z,96447.52
2019-02-12T00:57:54.924Z,96451.33
2019-02-12T01:00:26.333Z,96452.99
2019-02-12T01:02:57.779Z,96460.02
2019-02-12T01:05:29.201Z,96462.75
2019-02-12T01:08:00.735Z,96467.10
2019-02-12T01:10:32.095Z,96477.23
2019-02-12T01:13:03.529Z,96470.45
2019-02-12T01:15:38.281Z,96479.75
2019-02-12T01:18:09.623Z,96474.38
2019-02-12T01:20:41.021Z,96471.55
2019-02-12T01:23:12.475Z,96471.34
2019-02-12T01:25:43.897Z,96475.95
2019-02-12T01:28:15.350Z,96480.91
2019-02-12T01:30:46.957Z,96496.65
2019-02-12T01:33:18.322Z,96503.33
2019-02-12T01:35:49.756Z,96502.83
2019-02-12T01:38:21.126Z,96512.41
2019-02-12T01:40:52.534Z,96504.66
2019-02-12T01:43:23.962Z,96504.81
2019-02-12T01:45:55.389Z,96496.94
2019-02-12T01:48:26.865Z,96495.13
2019-02-12T01:50:58.206Z,96496.23
2019-02-12T01:53:29.590Z,96504.93
2019-02-12T01:56:00.993Z,96516.09
2019-02-12T01:58:32.449Z,96524.68
2019-02-12T02:01:03.855Z,96525.97
2019-02-12T02:03:36.279Z,96525.50
2019-02-12T02:06:07.686Z,96529.22
2019-02-12T02:08:39.087Z,96537.60
2019-02-12T02:11:10.862Z,96537.98
2019-02-12T02:13:42.325Z,96525.67
2019-02-12T02:16:13.782Z,96539.97
2019-02-12T02:18:45.229Z,96532.74
2019-02-12T02:21:16.640Z,96533.41
2019-02-12T02:23:48.103Z,96532.97
2019-02-12T02:26:19.521Z,96523.86
2019-02-12T02:28:50.964Z,96540.69
2019-02-12T02:31:23.447Z,96535.66
2019-02-12T02:33:54.824Z,96540.41
2019-02-12T02:36:26.163Z,96536.88
2019-02-12T02:38:57.617Z,96550.03
2019-02-12T02:41:32.692Z,96550.17
2019-02-12T02:44:04.129Z,96550.25
2019-02-12T02:46:35.466Z,96547.85
2019-02-12T02:49:06.760Z,96560.12
2019-02-12T02:51:38.179Z,96564.87
2019-02-12T02:54:09.634Z,96568.40
2019-02-12T02:56:41.065Z,96561.26
2019-02-12T02:59:12.496Z,96555.23
2019-02-12T03:01:43.984Z,96548.05
2019-02-12T03:04:16.412Z,96536.78
2019-02-12T03:06:47.923Z,96538.91
2019-02-12T03:09:19.398Z,96538.94
2019-02-12T03:11:50.836Z,96529.36
2019-02-12T03:14:22.293Z,96524.39
2019-02-12T03:16:53.661Z,96539.13
2019-02-12T03:19:25.124Z,96540.75
2019-02-12T03:22:03.410Z,96540.66
2019-02-12T03:24:29.606Z,96544.43
2019-02-12T03:27:00.973Z,96542.03
2019-02-12T03:29:34.586Z,96552.23
2019-02-12T03:32:06.014Z,96548.92
2019-02-12T03:34:37.522Z,96542.47
2019-02-12T03:37:09.375Z,96549.88
2019-02-12T03:39:40.749Z,96555.61
2019-02-12T03:42:12.196Z,96572.86
2019-02-12T03:44:43.640Z,96570.45
2019-02-12T03:47:15.243Z,96583.64
2019-02-12T03:49:46.668Z,96581.29
2019-02-12T03:52:18.434Z,96594.11
2019-02-12T03:54:50.355Z,96602.50
2019-02-12T03:57:22.633Z,96601.77
2019-02-12T03:59:54.094Z,96599.36
2019-02-12T04:02:25.709Z,96596.63
2019-02-12T04:04:57.166Z,96597.21
2019-02-12T04:07:28.609Z,96593.20
2019-02-12T04:09:59.986Z,96594.70
2019-02-12T04:12:31.414Z,96596.83
2019-02-12T04:15:02.891Z,96591.39
2019-02-12T04:17:34.369Z,96587.06
2019-02-12T04:20:05.956Z,96603.09
2019-02-12T04:22:37.319Z,96600.35
2019-02-12T04:25:08.776Z,96617.83
2019-02-12T04:27:40.194Z,96617.20
2019-02-12T04:30:11.927Z,96618.90
2019-02-12T04:32:43.344Z,96620.76
2019-02-12T04:35:14.857Z,96622.63
2019-02-12T04:37:46.222Z,96623.18
2019-02-12T04:40:17.689Z,96613.77
2019-02-12T04:42:49.169Z,96616.55
2019-02-12T04:45:20.984Z,96620.67
2019-02-12T04:47:52.396Z,96616.77
2019-02-12T04:50:23.822Z,96625.69
2019-02-12T04:52:55.237Z,96623.80
2019-02-12T04:55:26.693Z,96611.80
2019-02-12T04:57:58.114Z,96613.39
2019-02-12T05:00:29.557Z,96616.28
2019-02-12T05:03:00.998Z,96627.03
2019-02-12T05:05:34.518Z,96633.91
2019-02-12T05:08:05.946Z,96625.86
2019-02-12T05:10:42.618Z,96623.08
2019-02-12T05:13:13.966Z,96625.79
2019-02-12T05:15:45.406Z,96635.61
2019-02-12T05:18:16.859Z,96636.38
2019-02-12T05:20:48.231Z,96641.98
2019-02-12T05:23:19.578Z,96647.33
2019-02-12T05:25:51.022Z,96652.66
2019-02-12T05:28:22.544Z,96640.02
2019-02-12T05:30:54.012Z,96639.79
2019-02-12T05:33:25.442Z,96656.84
2019-02-12T05:35:57.428Z,96647.97
2019-02-12T05:38:28.770Z,96650.32
2019-02-12T05:41:00.223Z,96658.27
2019-02-12T05:43:31.688Z,96661.80
2019-02-12T05:46:04.284Z,96666.08
2019-02-12T05:48:35.765Z,96666.68
2019-02-12T05:51:07.256Z,96660.95
2019-02-12T05:53:38.686Z,96656.14
2019-02-12T05:56:10.164Z,96655.66
2019-02-12T05:58:41.630Z,96656.67
2019-02-12T06:01:13.495Z,96657.48
2019-02-12T06:03:44.964Z,96670.19
2019-02-12T06:06:17.151Z,96674.08
2019-02-12T06:08:48.837Z,96673.64
2019-02-12T06:11:20.277Z,96672.91
2019-02-12T06:13:51.777Z,96678.97
2019-02-12T06:16:23.180Z,96690.02
2019-02-12T06:18:54.655Z,96689.77
2019-02-12T06:21:26.016Z,96701.61
2019-02-12T06:23:57.446Z,96698.41
2019-02-12T06:26:28.913Z,96702.35
2019-02-12T06:29:00.261Z,96717.20
2019-02-12T06:31:31.745Z,96715.02
2019-02-12T06:34:03.181Z,96711.94
2019-02-12T06:36:34.624Z,96709.61
2019-02-12T06:39:28.256Z,96710.38
2019-02-12T06:41:59.731Z,96713.22
2019-02-12T06:44:31.180Z,96716.84
2019-02-12T06:47:02.672Z,96717.25
2019-02-12T06:49:34.039Z,96720.41
2019-02-12T06:52:05.709Z,96712.79
2019-02-12T06:54:37.161Z,96716.64
2019-02-12T06:57:09.104Z,96721.51
2019-02-12T06:59:40.534Z,96725.63
2019-02-12T07:03:06.033Z,96725.01
2019-02-12T07:05:37.631Z,96725.81
2019-02-12T07:08:46.146Z,96723.59
2019-02-12T07:11:41.703Z,96732.28
2019-02-12T07:14:52.565Z,96751.64
2019-02-12T07:17:55.859Z,96757.91
2019-02-12T07:21:27.967Z,96753.25
2019-02-12T07:24:50.191Z,96761.12
2019-02-12T07:28:20.876Z,96771.56
2019-02-12T07:32:12.648Z,96776.97
2019-02-12T07:34:52.930Z,96778.88
2019-02-12T07:38:11.378Z,96792.98
2019-02-12T07:41:33.945Z,96802.57
2019-02-12T07:44:51.437Z,96814.57
2019-02-12T07:47:59.842Z,96820.84
2019-02-12T07:51:01.505Z,96820.84
2019-02-12T07:54:35.708Z,96826.08
2019-02-12T07:58:00.165Z,96830.09
2019-02-12T08:01:19.365Z,96827.13
2019-02-12T08:04:40.583Z,96832.48
2019-02-12T08:08:18.180Z,96837.37
2019-02-12T08:11:24.241Z,96840.41
2019-02-12T08:14:59.963Z,96843.69
2019-02-12T08:18:01.439Z,96836.89
2019-02-12T08:21:34.707Z,96837.98
2019-02-12T08:24:39.900Z,96831.02
2019-02-12T08:27:44.523Z,96833.05
2019-02-12T08:30:53.880Z,96841.37
2019-02-12T08:34:24.642Z,96845.25
2019-02-12T08:37:18.618Z,96835.80
2019-02-12T08:40:48.144Z,96844.53
2019-02-12T08:43:54.732Z,96833.67
2019-02-12T08:47:10.505Z,96831.13
2019-02-12T08:50:40.380Z,96843.86
2019-02-12T08:54:08.004Z,96845.73
2019-02-12T08:57:10.862Z,96845.92
2019-02-12T09:00:22.443Z,96846.87
2019-02-12T09:04:00.067Z,96859.11
2019-02-12T09:07:00.039Z,96856.31
2019-02-12T09:10:31.223Z,96856.48
2019-02-12T09:13:39.280Z,96859.45
2019-02-12T09:16:52.315Z,96866.27
2019-02-12T09:20:11.096Z,96864.83
2019-02-12T09:23:47.335Z,96870.70
2019-02-12T09:27:36.775Z,96873.66
2019-02-12T09:30:50.605Z,96877.94
2019-02-12T09:34:42.495Z,96884.21
2019-02-12T09:37:55.577Z,96888.70
2019-02-12T09:41:28.828Z,96890.42
2019-02-12T09:45:30.503Z,96889.66
2019-02-12T09:48:44.261Z,96894.20
2019-02-12T09:52:21.804Z,96887.36
2019-02-12T09:56:14.421Z,96890.09
2019-02-12T09:59:41.800Z,96892.17
2019-02-12T10:03:09.735Z,96889.39
2019-02-12T10:06:27.823Z,96887.94
2019-02-12T10:10:04.773Z,96891.08
2019-02-12T10:13:51.060Z,96893.35
2019-02-12T10:17:34.758Z,96887.77
2019-02-12T10:20:38.939Z,96901.91
2019-02-12T10:24:19.231Z,96898.02
2019-02-12T10:26:55.639Z,96899.95
2019-02-12T10:29:50.835Z,96899.20
2019-02-12T10:32:19.628Z,96906.31
2019-02-12T10:34:51.089Z,96911.45
2019-02-12T10:37:22.622Z,96917.44
2019-02-12T10:39:54.070Z,96914.41
2019-02-12T10:42:25.510Z,96912.93
2019-02-12T10:44:56.950Z,96905.38
2019-02-12T10:47:28.436Z,96903.65
2019-02-12T10:49:59.895Z,96908.76
2019-02-12T10:52:31.370Z,96910.00
2019-02-12T10:55:02.958Z,96915.47
2019-02-12T10:57:34.397Z,96911.19
2019-02-12T11:00:11.490Z,96904.88
2019-02-12T11:02:43.366Z,96907.59
2019-02-12T11:05:14.960Z,96899.98
2019-02-12T11:07:46.382Z,96895.08
2019-02-12T11:10:18.081Z,96892.28
2019-02-12T11:12:49.532Z,96895.39
2019-02-12T11:15:21.090Z,96898.52
2019-02-12T11:17:52.649Z,96906.16
2019-02-12T11:20:24.122Z,96905.25
2019-02-12T11:22:55.588Z,96906.64
2019-02-12T11:25:27.087Z,96903.28
2019-02-12T11:27:58.573Z,96910.41
2019-02-12T11:30:30.031Z,96908.12
2019-02-12T11:33:01.545Z,96909.21
2019-02-12T11:35:33.013Z,96915.20
2019-02-12T11:38:04.479Z,96903.69
2019-02-12T11:40:35.864Z,96906.94
2019-02-12T11:43:07.787Z,96909.55
2019-02-12T11:45:39.236Z,96911.50
2019-02-12T11:48:10.683Z,96905.22
2019-02-12T11:50:42.165Z,96900.47
2019-02-12T11:53:13.538Z,96901.28
2019-02-12T11:55:45.050Z,96893.88
2019-02-12T11:58:16.474Z,96885.26
2019-02-12T12:01:01.984Z,96904.49
2019-02-12T12:03:33.494Z,96888.35
2019-02-12T12:06:04.940Z,96892.12
2019-02-12T12:08:36.536Z,96881.86
2019-02-12T12:11:08.005Z,96893.27
2019-02-12T12:13:39.502Z,96898.58
2019-02-12T12:16:11.276Z,96905.39
2019-02-12T12:18:42.804Z,96902.20
2019-02-12T12:21:17.297Z,96903.09
2019-02-12T12:23:48.778Z,96902.94
2019-02-12T12:26:20.278Z,96907.06
2019-02-12T12:28:51.740Z,96906.42
2019-02-12T12:31:23.077Z,96904.47
2019-02-12T12:33:54.710Z,96900.98
2019-02-12T12:36:26.307Z,96912.56
2019-02-12T12:39:04.756Z,96903.81
2019-02-12T12:41:38.010Z,96911.74
2019-02-12T12:44:09.500Z,96903.62
2019-02-12T12:46:40.902Z,96909.75
2019-02-12T12:49:12.377Z,96910.52
2019-02-12T12:51:43.852Z,96916.53
2019-02-12T12:54:15.323Z,96909.23
2019-02-12T12:56:46.891Z,96913.70
2019-02-12T12:59:18.468Z,96926.39
2019-02-12T13:01:49.904Z,96923.33
2019-02-12T13:04:21.432Z,96930.45
2019-02-12T13:06:52.970Z,96927.09
2019-02-12T13:09:24.489Z,96927.94
2019-02-12T13:11:55.872Z,96925.02
2019-02-12T13:14:31.102Z,96927.20
2019-02-12T13:17:02.769Z,96922.05
2019-02-12T13:19:34.702Z,96933.14
2019-02-12T13:22:06.197Z,96931.63
2019-02-12T13:24:37.634Z,96930.45
2019-02-12T13:27:09.152Z,96937.32
2019-02-12T13:29:40.664Z,96936.39
2019-02-12T13:32:12.090Z,96937.88
2019-02-12T13:34:43.563Z,96937.47
2019-02-12T13:37:15.034Z,96933.56
2019-02-12T13:39:49.833Z,96932.88
2019-02-12T13:42:21.284Z,96933.20
2019-02-12T13:44:52.721Z,96943.13
2019-02-12T13:47:24.223Z,96943.83
2019-02-12T13:49:55.563Z,96943.92
2019-02-12T13:52:27.030Z,96942.64
2019-02-12T13:54:58.576Z,96938.00
2019-02-12T13:57:30.061Z,96942.17
2019-02-12T14:00:01.633Z,96940.01
2019-02-12T14:02:34.718Z,96943.30
2019-02-12T14:05:08.322Z,96936.31
2019-02-12T14:07:40.196Z,96938.29
2019-02-12T14:10:11.730Z,96949.26
2019-02-12T14:12:43.431Z,96942.90
2019-02-12T14:15:14.946Z,96946.45
2019-02-12T14:17:47.317Z,96946.99
2019-02-12T14:20:18.745Z,96947.81
2019-02-12T14:22:50.230Z,96963.73
2019-02-12T14:25:25.675Z,96954.66
2019-02-12T14:27:55.068Z,96961.83
2019-02-12T14:30:26.638Z,96968.39
2019-02-12T14:32:58.128Z,96973.45
2019-02-12T14:35:29.572Z,96973.51
2019-02-12T14:38:01.037Z,96974.59
2019-02-12T14:40:32.546Z,96967.25
2019-02-12T14:43:04.303Z,96968.19
2019-02-12T14:45:35.815Z,96972.98
2019-02-12T14:48:07.275Z,96969.95
2019-02-12T14:50:38.800Z,96968.98
2019-02-12T14:53:10.358Z,96971.20
2019-02-12T14:55:41.948Z,96974.77
2019-02-12T14:58:13.390Z,96979.12
2019-02-12T15:00:44.838Z,96977.34
2019-02-12T15:03:16.472Z,96978.30
2019-02-12T15:05:53.846Z,96976.34
2019-02-12T15:08:26.828Z,96984.80
2019-02-12T15:10:58.383Z,96983.88
2019-02-12T15:13:29.802Z,96968.02
2019-02-12T15:16:01.325Z,96974.86
2019-02-12T15:18:32.869Z,96970.12
2019-02-12T15:21:04.355Z,96974.39
2019-02-12T15:23:35.823Z,96976.27
2019-02-12T15:26:07.290Z,96978.11
2019-02-12T15:28:38.722Z,96973.84
2019-02-12T15:31:10.331Z,96977.94
2019-02-12T15:33:42.052Z,96982.78
2019-02-12T15:36:13.528Z,96986.61
2019-02-12T15:38:45.028Z,96990.97
2019-02-12T15:41:16.544Z,96982.39
2019-02-12T15:43:47.978Z,96982.69
2019-02-12T15:46:19.434Z,96978.69
2019-02-12T15:48:50.966Z,96978.89
2019-02-12T15:51:22.486Z,96985.83
2019-02-12T15:53:53.916Z,96983.86
2019-02-12T15:56:25.516Z,96982.98
2019-02-12T15:58:56.994Z,96979.60
2019-02-12T16:01:28.527Z,96984.84
2019-02-12T16:04:00.260Z,96987.84
2019-02-12T16:06:31.767Z,96990.23
2019-02-12T16:09:04.095Z,96989.69
2019-02-12T16:11:37.757Z,96991.03
2019-02-12T16:14:12.565Z,96995.86
2019-02-12T16:16:44.041Z,96994.52
2019-02-12T16:19:15.501Z,97001.11
2019-02-12T16:21:46.965Z,96996.23
2019-02-12T16:24:18.386Z,96997.93
2019-02-12T16:26:49.877Z,96998.81
2019-02-12T16:29:21.366Z,97005.06
2019-02-12T16:31:52.844Z,97005.81
2019-02-12T16:34:24.786Z,97025.78
2019-02-12T16:36:56.245Z,97029.28
2019-02-12T16:39:27.639Z,97029.28
2019-02-12T16:41:59.126Z,97031.56
2019-02-12T16:44:30.715Z,97037.34
2019-02-12T16:47:02.215Z,97045.11
2019-02-12T16:49:33.647Z,97049.25
2019-02-12T16:52:05.164Z,97053.05
2019-02-12T16:54:36.738Z,97064.81
2019-02-12T16:57:08.293Z,97073.32
2019-02-12T16:59:39.825Z,97069.17
2019-02-12T17:02:11.409Z,97076.27
2019-02-12T17:04:42.925Z,97077.33
2019-02-12T17:07:14.498Z,97075.23
2019-02-12T17:09:52.113Z,97086.41
2019-02-12T17:12:19.127Z,97086.89
2019-02-12T17:14:50.545Z,97089.92
2019-02-12T17:17:22.323Z,97087.31
2019-02-12T17:19:53.774Z,97089.93
2019-02-12T17:22:25.182Z,97100.73
2019-02-12T17:24:56.674Z,97104.70
2019-02-12T17:27:28.169Z,97103.39
2019-02-12T17:29:59.722Z,97114.42
2019-02-12T17:32:31.242Z,97115.81
2019-02-12T17:35:02.790Z,97122.12
2019-02-12T17:37:34.410Z,97124.89
2019-02-12T17:40:06.817Z,97124.66
2019-02-12T17:42:38.476Z,97120.74
2019-02-12T17:45:13.931Z,97123.24
2019-02-12T17:47:45.375Z,97124.32
2019-02-12T17:50:17.160Z,97128.52
2019-02-12T17:52:51.423Z,97133.06
2019-02-12T17:55:22.951Z,97133.44
2019-02-12T17:57:54.436Z,97135.78
2019-02-12T18:00:28.588Z,97140.72
2019-02-12T18:03:00.154Z,97143.58
2019-02-12T18:05:31.568Z,97139.05
2019-02-12T18:08:03.102Z,97139.77
2019-02-12T18:10:34.563Z,97143.11
2019-02-12T18:13:06.022Z,97140.20
2019-02-12T18:15:38.520Z,97138.33
2019-02-12T18:18:10.013Z,97139.27
2019-02-12T18:20:44.268Z,97146.77
2019-02-12T18:23:15.862Z,97146.97
2019-02-12T18:25:49.697Z,97148.98
2019-02-12T18:28:21.255Z,97151.25
2019-02-12T18:30:52.792Z,97156.92
2019-02-12T18:33:24.274Z,97154.12
2019-02-12T18:35:55.692Z,97166.92
2019-02-12T18:38:27.228Z,97170.41
2019-02-12T18:40:58.649Z,97173.23
2019-02-12T18:43:30.111Z,97174.82
2019-02-12T18:46:01.559Z,97177.36
2019-02-12T18:48:33.117Z,97177.62
2019-02-12T18:51:04.538Z,97179.73
2019-02-12T18:53:36.112Z,97187.39
2019-02-12T18:56:07.546Z,97184.20
2019-02-12T18:58:38.986Z,97193.45
2019-02-12T19:01:10.388Z,97191.66
2019-02-12T19:03:41.883Z,97191.81
2019-02-12T19:06:13.385Z,97196.63
2019-02-12T19:08:45.014Z,97193.05
2019-02-12T19:11:16.452Z,97193.23
2019-02-12T19:13:47.966Z,97190.06
2019-02-12T19:16:19.658Z,97201.59
2019-02-12T19:18:51.094Z,97198.77
2019-02-12T19:21:23.624Z,97207.55
2019-02-12T19:23:55.081Z,97197.88
2019-02-12T19:26:26.499Z,97196.55
2019-02-12T19:28:57.959Z,97200.36
2019-02-12T19:31:29.396Z,97203.03
2019-02-12T19:34:00.874Z,97204.03
2019-02-12T19:36:32.372Z,97203.81
2019-02-12T19:39:04.992Z,97208.30
2019-02-12T19:41:37.834Z,97212.89
2019-02-12T19:44:09.290Z,97213.52
2019-02-12T19:46:40.722Z,97208.50
2019-02-12T19:49:12.300Z,97216.61
2019-02-12T19:51:43.774Z,97219.66
2019-02-12T19:54:15.212Z,97215.89
2019-02-12T19:56:46.660Z,97216.94
2019-02-12T19:59:18.116Z,97217.34
2019-02-12T20:01:49.537Z,97225.08
2019-02-12T20:04:20.999Z,97226.98
2019-02-12T20:06:52.406Z,97227.77
2019-02-12T20:09:24.024Z,97231.87
2019-02-12T20:11:55.482Z,97226.49
2019-02-12T20:14:26.923Z,97229.64
2019-02-12T20:16:58.374Z,97232.70
2019-02-12T20:19:29.838Z,97232.36
2019-02-12T20:22:01.210Z,97230.43
2019-02-12T20:24:32.679Z,97234.45
2019-02-12T20:27:06.656Z,97233.51
2019-02-12T20:29:38.680Z,97231.84
2019-02-12T20:32:10.161Z,97234.08
2019-02-12T20:34:41.624Z,97234.14
2019-02-12T20:37:13.086Z,97229.84
2019-02-12T20:39:44.561Z,97238.17
2019-02-12T20:42:16.004Z,97246.38
2019-02-12T20:44:48.556Z,97242.14
2019-02-12T20:47:20.063Z,97238.39
2019-02-12T20:49:51.531Z,97237.78
2019-02-12T20:52:22.928Z,97237.50
2019-02-12T20:54:54.594Z,97233.27
2019-02-12T20:57:26.022Z,97230.52
2019-02-12T20:59:57.500Z,97243.20
2019-02-12T21:02:28.912Z,97236.15
2019-02-12T21:05:00.332Z,97231.02
2019-02-12T21:07:31.754Z,97230.44
2019-02-12T21:10:03.214Z,97237.28
2019-02-12T21:12:34.709Z,97228.80
2019-02-12T21:15:08.075Z,97226.02
2019-02-12T21:17:39.527Z,97230.11
2019-02-12T21:20:11.136Z,97240.18
2019-02-12T21:22:42.564Z,97228.91
2019-02-12T21:25:14.389Z,97232.25
2019-02-12T21:27:45.911Z,97225.77
2019-02-12T21:30:19.978Z,97230.16
2019-02-12T21:32:51.547Z,97227.20
2019-02-12T21:35:23.127Z,97226.89
2019-02-12T21:37:54.559Z,97228.62
2019-02-12T21:40:26.146Z,97236.09
2019-02-12T21:42:57.558Z,97231.94
2019-02-12T21:45:42.899Z,97230.08
2019-02-12T21:48:14.248Z,97230.67
2019-02-12T21:50:45.725Z,97237.08
2019-02-12T21:53:17.174Z,97236.34
2019-02-12T21:55:48.652Z,97234.20
2019-02-12T21:58:20.126Z,97244.89
2019-02-12T22:00:51.625Z,97248.69
2019-02-12T22:03:23.071Z,97246.83
2019-02-12T22:05:54.527Z,97249.20
2019-02-12T22:08:25.927Z,97244.30
2019-02-12T22:10:57.482Z,97244.09
2019-02-12T22:13:28.901Z,97242.64
2019-02-12T22:16:00.455Z,97244.73
2019-02-12T22:18:32.026Z,97239.31
2019-02-12T22:21:03.525Z,97239.94
2019-02-12T22:23:34.972Z,97241.69
2019-02-12T22:26:08.368Z,97239.84
2019-02-12T22:28:39.843Z,97236.44
2019-02-12T22:31:11.300Z,97233.55
2019-02-12T22:33:42.742Z,97233.77
2019-02-12T22:36:14.216Z,97237.77
2019-02-12T22:38:45.685Z,97247.39
2019-02-12T22:41:17.171Z,97247.68
2019-02-12T22:43:48.650Z,97240.14
2019-02-12T22:46:20.123Z,97241.13
2019-02-12T22:48:51.559Z,97238.51
2019-02-12T22:51:22.956Z,97247.48
2019-02-12T22:53:54.360Z,97251.33
2019-02-12T22:56:25.791Z,97249.95
2019-02-12T22:58:57.276Z,97254.84
2019-02-12T23:01:39.226Z,97259.34
2019-02-12T23:04:10.799Z,97258.00
2019-02-12T23:06:43.352Z,97260.33
2019-02-12T23:09:18.950Z,97252.14
2019-02-12T23:11:50.525Z,97252.65
2019-02-12T23:14:23.602Z,97251.56
2019-02-12T23:16:54.975Z,97246.22
2019-02-12T23:19:26.472Z,97244.45
2019-02-12T23:21:58.039Z,97240.64
2019-02-12T23:24:29.463Z,97233.91
2019-02-12T23:27:00.941Z,97227.25
2019-02-12T23:29:33.080Z,97227.65
2019-02-12T23:32:04.627Z,97221.70
2019-02-12T23:34:36.279Z,97226.92
2019-02-12T23:37:07.789Z,97222.80
2019-02-12T23:39:39.161Z,97221.52
2019-02-12T23:42:10.711Z,97223.27
2019-02-12T23:44:42.157Z,97234.60
2019-02-12T23:47:13.625Z,97227.78
2019-02-12T23:49:45.079Z,97231.64
2019-02-12T23:52:16.625Z,97240.63
2019-02-12T23:54:47.989Z,97237.89
2019-02-12T23:57:19.375Z,97237.86
2019-02-12T23:59:50.830Z,97232.58
